Time;durP1;ratioP1;P1;durP2;ratioP2;P2;SDS_P1;SDS_P2;PMS_P1;PMS_P2;Temp;Humidity;BMP_temperature;BMP_pressure;BME280_temperature;BME280_humidity;BME280_pressure;Samples;Min_cycle;Max_cycle;Signal;HPM_P1;HPM_P2
2022/02/01 00:06:18;;;;;;;0.65;0.00;;;2.30;49.90;;;;;;20808386;28;20041;-43
2022/02/01 00:37:08;;;;;;;0.00;0.00;;;2.30;48.60;;;;;;20818043;28;20073;-44
2022/02/01 00:47:11;;;;;;;1.95;0.00;;;2.60;47.40;;;;;;20732366;28;20093;-43
2022/02/01 00:57:15;;;;;;;0.00;0.00;;;2.60;47.00;;;;;;20746640;28;21139;-44
2022/02/01 01:07:18;;;;;;;0.30;0.00;;;2.70;47.30;;;;;;20741964;28;20096;-43
2022/02/01 01:58:32;;;;;;;;;;;2.20;50.30;;;;;;20688683;28;20041;-43
2022/02/01 02:08:35;;;;;;;1.40;0.00;;;2.20;50.40;;;;;;20675272;28;19910;-43
2022/02/01 02:18:39;;;;;;;0.95;0.00;;;2.00;50.90;;;;;;20660366;28;20069;-43
2022/02/01 02:28:41;;;;;;;0.00;0.00;;;1.80;51.40;;;;;;20729578;28;20038;-44
2022/02/01 02:38:59;;;;;;;0.00;0.00;;;1.90;51.20;;;;;;20706927;28;20081;-43
2022/02/01 02:49:05;;;;;;;0.00;0.00;;;1.60;52.90;;;;;;20733835;28;20038;-46
2022/02/01 02:59:07;;;;;;;0.00;0.00;;;1.60;53.40;;;;;;20732862;28;20038;-44
2022/02/01 03:09:11;;;;;;;0.20;0.00;;;1.50;55.20;;;;;;20716577;28;20041;-43
2022/02/01 03:29:36;;;;;;;0.00;0.00;;;0.90;58.40;;;;;;20741594;28;20033;-44
2022/02/01 03:39:38;;;;;;;0.00;0.00;;;0.90;58.40;;;;;;20754561;28;20100;-43
2022/02/01 03:49:42;;;;;;;0.00;0.00;;;1.10;57.60;;;;;;20758086;28;20034;-43
2022/02/01 03:59:45;;;;;;;0.00;0.00;;;1.10;58.90;;;;;;20741387;28;20084;-43
2022/02/01 04:09:50;;;;;;;0.00;0.00;;;1.20;57.70;;;;;;20757519;28;20041;-42
2022/02/01 04:19:53;;;;;;;0.00;0.00;;;1.10;59.90;;;;;;20757056;28;20498;-43
2022/02/01 04:30:06;;;;;;;0.00;0.00;;;1.30;57.20;;;;;;20740376;28;20103;-43
2022/02/01 04:40:13;;;;;;;0.00;0.00;;;1.00;59.20;;;;;;20752126;28;20050;-44
2022/02/01 04:50:22;;;;;;;0.00;0.00;;;0.70;58.30;;;;;;20742814;28;20042;-43
2022/02/01 05:00:29;;;;;;;0.20;0.00;;;0.90;61.20;;;;;;20741913;28;20030;-42
2022/02/01 05:10:33;;;;;;;0.03;0.00;;;0.50;60.80;;;;;;20741412;28;20037;-43
2022/02/01 05:20:49;;;;;;;0.00;0.00;;;0.70;62.40;;;;;;20741957;28;20041;-44
2022/02/01 05:30:56;;;;;;;0.32;0.00;;;0.90;59.10;;;;;;20707687;28;20071;-45
2022/02/01 05:40:58;;;;;;;0.30;0.00;;;1.20;61.60;;;;;;20738995;28;20058;-43
2022/02/01 05:51:02;;;;;;;0.43;0.00;;;1.10;59.10;;;;;;20738195;28;20037;-45
2022/02/01 06:01:04;;;;;;;1.20;0.00;;;1.20;58.40;;;;;;20737726;28;20092;-42
2022/02/01 06:11:07;;;;;;;0.20;0.00;;;1.30;57.50;;;;;;20736873;28;20108;-43
2022/02/01 06:21:09;;;;;;;0.00;0.00;;;1.30;58.40;;;;;;20736133;28;20347;-45
2022/02/01 06:31:12;;;;;;;0.00;0.00;;;1.10;58.00;;;;;;20712862;28;20389;-44
2022/02/01 06:41:16;;;;;;;2.63;0.00;;;1.00;59.20;;;;;;20734365;28;20050;-45
2022/02/01 06:51:23;;;;;;;0.00;0.00;;;1.20;54.60;;;;;;20717403;28;20454;-43
2022/02/01 07:01:28;;;;;;;0.00;0.00;;;1.30;55.50;;;;;;20726719;28;20038;-42
2022/02/01 07:11:31;;;;;;;0.13;0.00;;;1.40;54.20;;;;;;20733099;28;20104;-42
2022/02/01 07:21:35;;;;;;;0.00;0.00;;;1.70;53.40;;;;;;20732415;28;20034;-44
2022/02/01 07:31:38;;;;;;;0.00;0.00;;;1.60;56.90;;;;;;20699923;28;20374;-43
2022/02/01 07:41:41;;;;;;;0.08;0.00;;;1.60;56.80;;;;;;20730884;28;20046;-46
2022/02/01 07:51:43;;;;;;;0.03;0.00;;;1.70;62.70;;;;;;20715101;28;20041;-42
2022/02/01 08:01:46;;;;;;;0.00;0.00;;;1.80;57.00;;;;;;20730052;28;20046;-44
2022/02/01 08:11:49;;;;;;;0.05;0.00;;;2.10;57.60;;;;;;20714034;28;20407;-43
2022/02/01 08:21:53;;;;;;;0.10;0.00;;;2.40;62.10;;;;;;20743130;28;20037;-42
2022/02/01 08:31:59;;;;;;;0.00;0.00;;;2.30;62.90;;;;;;20725920;28;20066;-43
2022/02/01 08:42:02;;;;;;;0.00;0.00;;;2.30;64.10;;;;;;20711427;28;20449;-43
2022/02/01 08:52:08;;;;;;;0.00;0.00;;;2.50;62.20;;;;;;20726873;28;20104;-43
2022/02/01 09:02:15;;;;;;;0.00;0.00;;;3.00;63.50;;;;;;20742301;28;20037;-43
2022/02/01 09:12:18;;;;;;;0.20;0.00;;;3.50;62.70;;;;;;20741668;28;20038;-42
2022/02/01 09:22:21;;;;;;;0.00;0.00;;;4.00;62.10;;;;;;20722647;28;20792;-42
2022/02/01 09:32:25;;;;;;;4.07;0.00;;;4.30;62.30;;;;;;20739146;28;20145;-43
2022/02/01 09:42:28;;;;;;;0.00;0.00;;;5.20;60.80;;;;;;20722802;28;20112;-43
2022/02/01 09:52:31;;;;;;;0.65;0.05;;;5.90;59.00;;;;;;20738482;28;20092;-43
2022/02/01 10:02:39;;;;;;;0.63;0.17;;;5.80;58.00;;;;;;20721362;28;20034;-43
2022/02/01 10:12:43;;;;;;;2.72;0.10;;;5.90;56.80;;;;;;20737364;28;20042;-45
2022/02/01 10:22:46;;;;;;;3.20;0.00;;;5.40;54.80;;;;;;20736847;28;20041;-42
2022/02/01 10:43:04;;;;;;;0.22;0.00;;;4.40;56.20;;;;;;20731556;28;20393;-43
2022/02/01 10:53:20;;;;;;;0.32;0.00;;;4.90;55.40;;;;;;20733685;28;20037;-42
2022/02/01 11:03:24;;;;;;;0.00;0.00;;;4.40;55.80;;;;;;20733306;28;20092;-45
2022/02/01 11:13:41;;;;;;;0.00;0.00;;;5.00;55.60;;;;;;20732991;28;20064;-44
2022/02/01 11:23:52;;;;;;;3.33;0.00;;;4.70;54.70;;;;;;20731715;28;20030;-44
2022/02/01 11:33:55;;;;;;;1.90;0.00;;;4.90;54.50;;;;;;20714640;28;20045;-43
2022/02/01 11:44:26;;;;;;;0.00;0.00;;;5.10;54.20;;;;;;20729697;28;20062;-44
2022/02/01 11:54:31;;;;;;;0.00;0.00;;;5.10;56.70;;;;;;20724365;28;20038;-44
2022/02/01 12:04:42;;;;;;;0.00;0.00;;;6.00;52.30;;;;;;20730592;28;20393;-44
2022/02/01 12:14:56;;;;;;;0.10;0.00;;;5.50;53.50;;;;;;20746193;28;20398;-44
2022/02/01 12:25:08;;;;;;;0.00;0.00;;;5.50;54.40;;;;;;20726154;28;20148;-43
2022/02/01 12:35:10;;;;;;;0.17;0.00;;;5.50;53.00;;;;;;20728318;28;20045;-44
2022/02/01 12:55:35;;;;;;;0.08;0.00;;;5.90;53.60;;;;;;20740617;28;20042;-43
2022/02/01 13:05:38;;;;;;;0.10;0.00;;;6.50;52.70;;;;;;20741414;28;20359;-46
2022/02/01 13:15:48;;;;;;;0.52;0.00;;;7.00;53.10;;;;;;20741124;28;20493;-43
2022/02/01 13:25:54;;;;;;;45.37;2.83;;;7.30;51.20;;;;;;20740742;28;20482;-43
2022/02/01 13:35:57;;;;;;;1.55;0.03;;;6.90;51.20;;;;;;20739594;28;20092;-44
2022/02/01 13:46:01;;;;;;;0.40;0.00;;;5.80;51.20;;;;;;20690203;28;20414;-43
2022/02/01 13:56:07;;;;;;;0.32;0.00;;;5.40;52.30;;;;;;20698771;28;20101;-44
2022/02/01 14:37:21;;;;;;;0.00;0.00;;;4.50;54.00;;;;;;20726903;28;20108;-43
2022/02/01 14:47:24;;;;;;;0.10;0.00;;;4.30;53.30;;;;;;20709665;28;20045;-43
2022/02/01 15:11:21;;;;;;;0.10;0.00;;;3.70;57.60;;;;;;20667607;28;20034;-42
2022/02/01 15:18:13;;;;;;;1.40;0.10;;;3.40;57.50;;;;;;20707445;28;20077;-43
2022/02/01 15:28:18;;;;;;;1.77;0.00;;;3.40;55.30;;;;;;20725161;28;20049;-42
2022/02/01 15:38:27;;;;;;;0.77;0.10;;;2.60;58.70;;;;;;20742831;28;20417;-43
2022/02/01 15:58:44;;;;;;;0.38;0.10;;;1.20;62.30;;;;;;20813060;28;20107;-44
2022/02/01 16:08:47;;;;;;;0.20;0.10;;;0.80;65.60;;;;;;20811706;28;20103;-44
2022/02/01 16:18:52;;;;;;;0.80;0.10;;;0.30;67.00;;;;;;20795207;28;20037;-44
2022/02/01 16:28:59;;;;;;;0.30;0.08;;;0.00;68.10;;;;;;20779100;28;20056;-42
2022/02/01 16:39:08;;;;;;;0.40;0.00;;;-0.20;67.80;;;;;;20817933;28;20076;-43
2022/02/01 16:49:11;;;;;;;0.35;0.00;;;-0.30;67.60;;;;;;20823822;28;20477;-43
2022/02/01 16:59:24;;;;;;;0.15;0.00;;;-0.50;68.50;;;;;;20824207;28;20102;-44
2022/02/01 17:09:28;;;;;;;0.57;0.00;;;-0.70;68.60;;;;;;20804095;28;20091;-43
2022/02/01 17:21:24;;;;;;;0.57;0.00;;;-0.90;68.70;;;;;;20823698;28;20092;-53
2022/02/01 17:29:53;;;;;;;0.25;0.00;;;-0.90;69.60;;;;;;20805883;28;20087;-51
2022/02/01 17:39:56;;;;;;;0.10;0.00;;;-1.00;70.80;;;;;;20818178;28;20473;-53
2022/02/01 17:49:58;;;;;;;0.75;0.10;;;-0.90;68.60;;;;;;20804716;28;20041;-53
2022/02/01 18:00:01;;;;;;;0.13;0.05;;;-0.40;68.30;;;;;;20818824;28;20556;-53
2022/02/01 18:10:06;;;;;;;0.00;0.00;;;-0.10;68.00;;;;;;20799604;28;20041;-48
2022/02/01 18:20:09;;;;;;;1.90;0.00;;;-0.10;68.30;;;;;;20814417;28;20481;-52
2022/02/01 18:30:22;;;;;;;1.88;0.00;;;-0.40;69.60;;;;;;20817821;28;20053;-48
2022/02/01 18:40:26;;;;;;;0.25;0.00;;;-0.80;70.20;;;;;;20783553;28;20046;-49
2022/02/01 19:21:03;;;;;;;0.30;0.10;;;-1.20;72.20;;;;;;20813901;28;20041;-50
2022/02/01 19:31:11;;;;;;;0.32;0.10;;;-1.30;72.10;;;;;;20797259;28;20041;-48
2022/02/01 19:41:16;;;;;;;0.08;0.00;;;-1.40;73.50;;;;;;20796276;28;20057;-50
2022/02/01 19:51:20;;;;;;;0.20;0.00;;;-1.30;72.30;;;;;;20793431;28;20049;-50
2022/02/01 20:01:24;;;;;;;0.10;0.00;;;-0.90;70.50;;;;;;20795381;28;20442;-49
2022/02/01 20:11:27;;;;;;;0.10;0.00;;;-1.00;71.80;;;;;;20754804;28;20037;-48
2022/02/01 20:21:31;;;;;;;0.43;0.00;;;-1.10;72.70;;;;;;20749005;28;20103;-48
2022/02/01 20:31:35;;;;;;;0.10;0.00;;;-1.40;74.00;;;;;;20742883;28;20033;-51
2022/02/01 20:41:40;;;;;;;0.10;0.00;;;-1.10;73.40;;;;;;20757590;28;20038;-52
2022/02/01 20:51:42;;;;;;;3.63;0.00;;;-0.60;70.50;;;;;;20820926;28;20041;-51
2022/02/01 21:01:48;;;;;;;0.00;0.00;;;-0.60;71.60;;;;;;20812063;28;20065;-49
2022/02/01 21:11:50;;;;;;;0.00;0.00;;;-1.00;74.40;;;;;;20818727;28;20087;-62
2022/02/01 21:21:54;;;;;;;0.00;0.00;;;-1.50;77.50;;;;;;20820170;28;20456;-61
2022/02/01 21:31:57;;;;;;;3.03;0.10;;;-1.20;77.90;;;;;;20821440;28;20841;-59
2022/02/01 21:42:00;;;;;;;0.00;0.00;;;-1.10;76.10;;;;;;20793508;28;20050;-59
2022/02/01 21:52:03;;;;;;;0.63;0.10;;;-0.90;77.40;;;;;;20722709;28;20041;-61
2022/02/01 22:02:05;;;;;;;0.40;0.10;;;-0.80;77.50;;;;;;20751034;28;20033;-61
2022/02/01 22:12:11;;;;;;;0.08;0.00;;;-0.40;78.10;;;;;;20752599;28;20049;-56
2022/02/01 22:22:15;;;;;;;0.00;0.00;;;-0.50;79.10;;;;;;20743340;28;20057;-52
2022/02/01 22:32:20;;;;;;;4.10;0.00;;;0.20;78.60;;;;;;20776507;28;20033;-44
2022/02/01 22:42:23;;;;;;;0.15;0.08;;;0.30;78.20;;;;;;20718965;28;20042;-46
2022/02/01 22:52:26;;;;;;;0.20;0.00;;;0.20;79.00;;;;;;20753130;28;20042;-44
2022/02/01 23:02:29;;;;;;;0.10;0.10;;;-0.10;80.70;;;;;;20729980;28;20033;-45
2022/02/01 23:22:55;;;;;;;0.00;0.00;;;0.50;80.10;;;;;;20752744;28;20449;-44
2022/02/01 23:33:05;;;;;;;0.00;0.00;;;0.10;81.40;;;;;;20736067;28;20041;-44
2022/02/01 23:53:19;;;;;;;0.43;0.00;;;0.70;79.90;;;;;;20833354;28;20095;-44
